sensor_id;sensor_type;location;lat;lon;timestamp;P1;durP1;ratioP1;P2;durP2;ratioP2
9970;SDS011;5026;51.494;11.974;2022-07-29T00:00:41;4.45;;;1.48;;
9970;SDS011;5026;51.494;11.974;2022-07-29T00:03:09;3.17;;;1.30;;
9970;SDS011;5026;51.494;11.974;2022-07-29T00:05:37;2.95;;;1.20;;
9970;SDS011;5026;51.494;11.974;2022-07-29T00:08:06;4.25;;;1.42;;
9970;SDS011;5026;51.494;11.974;2022-07-29T00:10:34;5.43;;;1.58;;
9970;SDS011;5026;51.494;11.974;2022-07-29T00:13:01;2.88;;;1.50;;
9970;SDS011;5026;51.494;11.974;2022-07-29T00:15:28;2.17;;;1.50;;
9970;SDS011;5026;51.494;11.974;2022-07-29T00:17:55;3.53;;;1.23;;
9970;SDS011;5026;51.494;11.974;2022-07-29T00:20:22;3.17;;;1.65;;
9970;SDS011;5026;51.494;11.974;2022-07-29T00:22:49;5.20;;;1.42;;
9970;SDS011;5026;51.494;11.974;2022-07-29T00:25:17;4.50;;;1.33;;
9970;SDS011;5026;51.494;11.974;2022-07-29T00:27:44;3.13;;;1.10;;
9970;SDS011;5026;51.494;11.974;2022-07-29T00:30:12;4.50;;;1.30;;
9970;SDS011;5026;51.494;11.974;2022-07-29T00:32:39;5.78;;;1.67;;
9970;SDS011;5026;51.494;11.974;2022-07-29T00:35:06;6.00;;;1.60;;
9970;SDS011;5026;51.494;11.974;2022-07-29T00:37:51;3.70;;;1.60;;
9970;SDS011;5026;51.494;11.974;2022-07-29T00:40:19;2.53;;;1.60;;
9970;SDS011;5026;51.494;11.974;2022-07-29T00:42:47;2.17;;;1.50;;
9970;SDS011;5026;51.494;11.974;2022-07-29T00:45:16;7.22;;;1.95;;
9970;SDS011;5026;51.494;11.974;2022-07-29T00:47:43;5.40;;;1.55;;
9970;SDS011;5026;51.494;11.974;2022-07-29T00:50:11;3.20;;;1.48;;
9970;SDS011;5026;51.494;11.974;2022-07-29T00:52:40;4.95;;;1.58;;
9970;SDS011;5026;51.494;11.974;2022-07-29T00:55:08;2.40;;;1.38;;
9970;SDS011;5026;51.494;11.974;2022-07-29T00:57:38;2.33;;;1.23;;
9970;SDS011;5026;51.494;11.974;2022-07-29T01:00:07;2.38;;;1.30;;
9970;SDS011;5026;51.494;11.974;2022-07-29T01:02:36;2.28;;;1.05;;
9970;SDS011;5026;51.494;11.974;2022-07-29T01:05:04;4.22;;;1.50;;
9970;SDS011;5026;51.494;11.974;2022-07-29T01:07:32;3.95;;;1.48;;
9970;SDS011;5026;51.494;11.974;2022-07-29T01:10:02;4.40;;;1.38;;
9970;SDS011;5026;51.494;11.974;2022-07-29T01:12:30;3.83;;;1.30;;
9970;SDS011;5026;51.494;11.974;2022-07-29T01:15:00;3.03;;;1.80;;
9970;SDS011;5026;51.494;11.974;2022-07-29T01:17:32;4.10;;;1.40;;
9970;SDS011;5026;51.494;11.974;2022-07-29T01:20:04;4.70;;;1.50;;
9970;SDS011;5026;51.494;11.974;2022-07-29T01:22:42;2.80;;;1.30;;
9970;SDS011;5026;51.494;11.974;2022-07-29T01:25:31;4.30;;;1.83;;
9970;SDS011;5026;51.494;11.974;2022-07-29T01:28:19;3.75;;;1.52;;
9970;SDS011;5026;51.494;11.974;2022-07-29T01:31:13;3.13;;;1.55;;
9970;SDS011;5026;51.494;11.974;2022-07-29T01:33:45;5.18;;;1.52;;
9970;SDS011;5026;51.494;11.974;2022-07-29T01:36:18;4.25;;;1.52;;
9970;SDS011;5026;51.494;11.974;2022-07-29T01:38:52;5.70;;;1.55;;
9970;SDS011;5026;51.494;11.974;2022-07-29T01:41:25;2.72;;;1.58;;
9970;SDS011;5026;51.494;11.974;2022-07-29T01:43:59;2.20;;;1.23;;
9970;SDS011;5026;51.494;11.974;2022-07-29T01:46:30;2.03;;;1.63;;
9970;SDS011;5026;51.494;11.974;2022-07-29T01:49:01;2.20;;;1.50;;
9970;SDS011;5026;51.494;11.974;2022-07-29T01:51:35;4.40;;;1.50;;
9970;SDS011;5026;51.494;11.974;2022-07-29T01:54:07;2.80;;;1.33;;
9970;SDS011;5026;51.494;11.974;2022-07-29T01:56:38;3.80;;;1.35;;
9970;SDS011;5026;51.494;11.974;2022-07-29T01:59:08;4.28;;;1.60;;
9970;SDS011;5026;51.494;11.974;2022-07-29T02:01:36;3.00;;;1.48;;
9970;SDS011;5026;51.494;11.974;2022-07-29T02:04:06;5.68;;;1.88;;
9970;SDS011;5026;51.494;11.974;2022-07-29T02:06:36;7.18;;;1.90;;
9970;SDS011;5026;51.494;11.974;2022-07-29T02:09:06;2.80;;;1.55;;
9970;SDS011;5026;51.494;11.974;2022-07-29T02:11:35;2.97;;;1.73;;
9970;SDS011;5026;51.494;11.974;2022-07-29T02:14:04;4.95;;;1.58;;
9970;SDS011;5026;51.494;11.974;2022-07-29T02:16:34;5.82;;;1.65;;
9970;SDS011;5026;51.494;11.974;2022-07-29T02:19:04;4.43;;;1.45;;
9970;SDS011;5026;51.494;11.974;2022-07-29T02:21:33;4.22;;;1.52;;
9970;SDS011;5026;51.494;11.974;2022-07-29T02:24:02;8.25;;;2.00;;
9970;SDS011;5026;51.494;11.974;2022-07-29T02:26:31;2.92;;;1.50;;
9970;SDS011;5026;51.494;11.974;2022-07-29T02:28:59;3.75;;;1.95;;
9970;SDS011;5026;51.494;11.974;2022-07-29T02:31:29;4.65;;;1.60;;
9970;SDS011;5026;51.494;11.974;2022-07-29T02:34:00;7.43;;;1.70;;
9970;SDS011;5026;51.494;11.974;2022-07-29T02:36:29;10.38;;;1.88;;
9970;SDS011;5026;51.494;11.974;2022-07-29T02:38:57;5.78;;;1.75;;
9970;SDS011;5026;51.494;11.974;2022-07-29T02:41:27;2.70;;;1.73;;
9970;SDS011;5026;51.494;11.974;2022-07-29T02:43:56;3.40;;;1.83;;
9970;SDS011;5026;51.494;11.974;2022-07-29T02:46:29;4.55;;;1.80;;
9970;SDS011;5026;51.494;11.974;2022-07-29T02:49:01;2.25;;;1.35;;
9970;SDS011;5026;51.494;11.974;2022-07-29T02:51:40;3.78;;;1.98;;
9970;SDS011;5026;51.494;11.974;2022-07-29T02:54:10;4.03;;;1.80;;
9970;SDS011;5026;51.494;11.974;2022-07-29T02:56:41;4.03;;;1.83;;
9970;SDS011;5026;51.494;11.974;2022-07-29T02:59:10;4.03;;;1.92;;
9970;SDS011;5026;51.494;11.974;2022-07-29T03:01:40;2.55;;;1.48;;
9970;SDS011;5026;51.494;11.974;2022-07-29T03:04:11;3.67;;;1.52;;
9970;SDS011;5026;51.494;11.974;2022-07-29T03:06:40;2.10;;;1.40;;
9970;SDS011;5026;51.494;11.974;2022-07-29T03:09:09;4.50;;;1.60;;
9970;SDS011;5026;51.494;11.974;2022-07-29T03:11:39;1.63;;;1.42;;
9970;SDS011;5026;51.494;11.974;2022-07-29T03:14:08;2.08;;;1.38;;
9970;SDS011;5026;51.494;11.974;2022-07-29T03:16:35;5.25;;;1.77;;
9970;SDS011;5026;51.494;11.974;2022-07-29T03:19:04;1.65;;;1.55;;
9970;SDS011;5026;51.494;11.974;2022-07-29T03:21:33;2.95;;;1.30;;
9970;SDS011;5026;51.494;11.974;2022-07-29T03:24:00;8.07;;;1.70;;
9970;SDS011;5026;51.494;11.974;2022-07-29T03:26:27;5.13;;;1.77;;
9970;SDS011;5026;51.494;11.974;2022-07-29T03:28:54;4.53;;;1.55;;
9970;SDS011;5026;51.494;11.974;2022-07-29T03:31:21;3.17;;;1.70;;
9970;SDS011;5026;51.494;11.974;2022-07-29T03:33:48;3.70;;;1.85;;
9970;SDS011;5026;51.494;11.974;2022-07-29T03:36:15;5.88;;;1.98;;
9970;SDS011;5026;51.494;11.974;2022-07-29T03:38:44;3.00;;;2.00;;
9970;SDS011;5026;51.494;11.974;2022-07-29T03:41:12;5.60;;;2.33;;
9970;SDS011;5026;51.494;11.974;2022-07-29T03:43:40;5.13;;;1.80;;
9970;SDS011;5026;51.494;11.974;2022-07-29T03:46:09;2.72;;;1.67;;
9970;SDS011;5026;51.494;11.974;2022-07-29T03:48:39;4.13;;;2.00;;
9970;SDS011;5026;51.494;11.974;2022-07-29T03:51:12;6.65;;;1.80;;
9970;SDS011;5026;51.494;11.974;2022-07-29T03:53:40;3.80;;;1.85;;
9970;SDS011;5026;51.494;11.974;2022-07-29T03:56:08;3.30;;;1.98;;
9970;SDS011;5026;51.494;11.974;2022-07-29T03:58:41;3.17;;;1.70;;
9970;SDS011;5026;51.494;11.974;2022-07-29T04:01:09;4.03;;;1.95;;
9970;SDS011;5026;51.494;11.974;2022-07-29T04:03:37;2.75;;;1.55;;
9970;SDS011;5026;51.494;11.974;2022-07-29T04:06:06;3.88;;;1.60;;
9970;SDS011;5026;51.494;11.974;2022-07-29T04:08:33;4.05;;;1.75;;
9970;SDS011;5026;51.494;11.974;2022-07-29T04:11:00;2.10;;;1.77;;
9970;SDS011;5026;51.494;11.974;2022-07-29T04:13:29;1.98;;;1.50;;
9970;SDS011;5026;51.494;11.974;2022-07-29T04:15:57;4.22;;;1.80;;
9970;SDS011;5026;51.494;11.974;2022-07-29T04:18:24;4.75;;;1.83;;
9970;SDS011;5026;51.494;11.974;2022-07-29T04:20:51;3.97;;;2.00;;
9970;SDS011;5026;51.494;11.974;2022-07-29T04:23:18;6.10;;;1.92;;
9970;SDS011;5026;51.494;11.974;2022-07-29T04:25:45;3.50;;;1.88;;
9970;SDS011;5026;51.494;11.974;2022-07-29T04:28:12;6.30;;;2.17;;
9970;SDS011;5026;51.494;11.974;2022-07-29T04:30:41;3.97;;;1.90;;
9970;SDS011;5026;51.494;11.974;2022-07-29T04:33:08;3.47;;;2.05;;
9970;SDS011;5026;51.494;11.974;2022-07-29T04:35:36;4.85;;;1.80;;
9970;SDS011;5026;51.494;11.974;2022-07-29T04:38:04;6.07;;;2.17;;
9970;SDS011;5026;51.494;11.974;2022-07-29T04:40:33;4.32;;;2.00;;
9970;SDS011;5026;51.494;11.974;2022-07-29T04:43:00;3.72;;;1.83;;
9970;SDS011;5026;51.494;11.974;2022-07-29T04:45:27;3.78;;;1.83;;
9970;SDS011;5026;51.494;11.974;2022-07-29T04:47:56;2.28;;;1.52;;
9970;SDS011;5026;51.494;11.974;2022-07-29T04:50:23;7.20;;;2.08;;
9970;SDS011;5026;51.494;11.974;2022-07-29T04:52:50;4.28;;;1.90;;
9970;SDS011;5026;51.494;11.974;2022-07-29T04:55:17;4.03;;;2.22;;
9970;SDS011;5026;51.494;11.974;2022-07-29T04:57:44;5.38;;;2.00;;
9970;SDS011;5026;51.494;11.974;2022-07-29T05:00:11;3.90;;;2.20;;
9970;SDS011;5026;51.494;11.974;2022-07-29T05:02:38;5.82;;;2.30;;
9970;SDS011;5026;51.494;11.974;2022-07-29T05:05:09;4.13;;;1.92;;
9970;SDS011;5026;51.494;11.974;2022-07-29T05:07:36;6.55;;;1.70;;
9970;SDS011;5026;51.494;11.974;2022-07-29T05:10:03;2.75;;;1.73;;
9970;SDS011;5026;51.494;11.974;2022-07-29T05:12:31;5.47;;;1.85;;
9970;SDS011;5026;51.494;11.974;2022-07-29T05:14:58;2.28;;;1.92;;
9970;SDS011;5026;51.494;11.974;2022-07-29T05:17:25;3.55;;;1.67;;
9970;SDS011;5026;51.494;11.974;2022-07-29T05:19:52;4.65;;;2.03;;
9970;SDS011;5026;51.494;11.974;2022-07-29T05:22:21;2.50;;;1.75;;
9970;SDS011;5026;51.494;11.974;2022-07-29T05:24:48;5.53;;;2.15;;
9970;SDS011;5026;51.494;11.974;2022-07-29T05:27:15;4.32;;;1.75;;
9970;SDS011;5026;51.494;11.974;2022-07-29T05:29:42;3.63;;;1.90;;
9970;SDS011;5026;51.494;11.974;2022-07-29T05:32:09;2.85;;;1.77;;
9970;SDS011;5026;51.494;11.974;2022-07-29T05:34:36;7.15;;;1.80;;
9970;SDS011;5026;51.494;11.974;2022-07-29T05:37:03;4.07;;;1.90;;
9970;SDS011;5026;51.494;11.974;2022-07-29T05:39:32;2.65;;;1.75;;
9970;SDS011;5026;51.494;11.974;2022-07-29T05:42:07;7.57;;;2.17;;
9970;SDS011;5026;51.494;11.974;2022-07-29T05:44:35;4.10;;;1.88;;
9970;SDS011;5026;51.494;11.974;2022-07-29T05:47:03;4.82;;;1.98;;
9970;SDS011;5026;51.494;11.974;2022-07-29T05:49:30;4.93;;;2.05;;
9970;SDS011;5026;51.494;11.974;2022-07-29T05:51:57;3.47;;;1.88;;
9970;SDS011;5026;51.494;11.974;2022-07-29T05:54:24;7.32;;;1.98;;
9970;SDS011;5026;51.494;11.974;2022-07-29T05:56:52;3.88;;;1.70;;
9970;SDS011;5026;51.494;11.974;2022-07-29T05:59:19;3.65;;;1.98;;
9970;SDS011;5026;51.494;11.974;2022-07-29T06:01:46;2.90;;;1.95;;
9970;SDS011;5026;51.494;11.974;2022-07-29T06:04:13;5.00;;;2.50;;
9970;SDS011;5026;51.494;11.974;2022-07-29T06:06:40;3.38;;;2.10;;
9970;SDS011;5026;51.494;11.974;2022-07-29T06:09:07;8.57;;;2.42;;
9970;SDS011;5026;51.494;11.974;2022-07-29T06:11:35;5.22;;;2.53;;
9970;SDS011;5026;51.494;11.974;2022-07-29T06:14:03;5.68;;;2.25;;
9970;SDS011;5026;51.494;11.974;2022-07-29T06:16:30;3.50;;;1.85;;
9970;SDS011;5026;51.494;11.974;2022-07-29T06:18:57;5.63;;;1.92;;
9970;SDS011;5026;51.494;11.974;2022-07-29T06:21:24;6.13;;;1.80;;
9970;SDS011;5026;51.494;11.974;2022-07-29T06:23:51;4.45;;;2.30;;
9970;SDS011;5026;51.494;11.974;2022-07-29T06:26:18;9.75;;;1.83;;
9970;SDS011;5026;51.494;11.974;2022-07-29T06:28:45;7.97;;;2.10;;
9970;SDS011;5026;51.494;11.974;2022-07-29T06:31:13;5.65;;;1.90;;
9970;SDS011;5026;51.494;11.974;2022-07-29T06:33:40;6.82;;;1.98;;
9970;SDS011;5026;51.494;11.974;2022-07-29T06:36:07;5.90;;;1.95;;
9970;SDS011;5026;51.494;11.974;2022-07-29T06:38:35;10.57;;;2.47;;
9970;SDS011;5026;51.494;11.974;2022-07-29T06:41:03;8.20;;;2.92;;
9970;SDS011;5026;51.494;11.974;2022-07-29T06:43:31;3.75;;;1.83;;
9970;SDS011;5026;51.494;11.974;2022-07-29T06:46:01;8.85;;;2.15;;
9970;SDS011;5026;51.494;11.974;2022-07-29T06:48:32;8.77;;;2.10;;
9970;SDS011;5026;51.494;11.974;2022-07-29T06:51:00;5.40;;;1.90;;
9970;SDS011;5026;51.494;11.974;2022-07-29T06:53:27;6.22;;;1.95;;
9970;SDS011;5026;51.494;11.974;2022-07-29T06:55:54;5.57;;;2.03;;
9970;SDS011;5026;51.494;11.974;2022-07-29T06:58:23;8.25;;;2.10;;
9970;SDS011;5026;51.494;11.974;2022-07-29T07:00:50;6.45;;;2.20;;
9970;SDS011;5026;51.494;11.974;2022-07-29T07:03:17;6.20;;;2.35;;
9970;SDS011;5026;51.494;11.974;2022-07-29T07:05:46;4.38;;;2.00;;
9970;SDS011;5026;51.494;11.974;2022-07-29T07:08:13;6.60;;;1.88;;
9970;SDS011;5026;51.494;11.974;2022-07-29T07:10:41;6.35;;;2.17;;
9970;SDS011;5026;51.494;11.974;2022-07-29T07:13:08;2.80;;;1.80;;
9970;SDS011;5026;51.494;11.974;2022-07-29T07:15:35;5.07;;;1.90;;
9970;SDS011;5026;51.494;11.974;2022-07-29T07:18:03;5.65;;;1.73;;
9970;SDS011;5026;51.494;11.974;2022-07-29T07:20:32;10.52;;;2.50;;
9970;SDS011;5026;51.494;11.974;2022-07-29T07:23:00;9.35;;;2.20;;
9970;SDS011;5026;51.494;11.974;2022-07-29T07:25:27;8.43;;;1.98;;
9970;SDS011;5026;51.494;11.974;2022-07-29T07:27:54;10.55;;;2.33;;
9970;SDS011;5026;51.494;11.974;2022-07-29T07:30:38;9.60;;;2.65;;
9970;SDS011;5026;51.494;11.974;2022-07-29T07:33:05;5.90;;;1.95;;
9970;SDS011;5026;51.494;11.974;2022-07-29T07:35:32;6.38;;;2.47;;
9970;SDS011;5026;51.494;11.974;2022-07-29T07:38:01;3.05;;;1.88;;
9970;SDS011;5026;51.494;11.974;2022-07-29T07:40:28;4.60;;;2.00;;
9970;SDS011;5026;51.494;11.974;2022-07-29T07:42:55;5.28;;;2.10;;
9970;SDS011;5026;51.494;11.974;2022-07-29T07:45:23;8.15;;;2.60;;
9970;SDS011;5026;51.494;11.974;2022-07-29T07:47:50;7.65;;;2.30;;
9970;SDS011;5026;51.494;11.974;2022-07-29T07:50:17;6.03;;;2.38;;
9970;SDS011;5026;51.494;11.974;2022-07-29T07:52:48;7.97;;;2.53;;
9970;SDS011;5026;51.494;11.974;2022-07-29T07:55:17;7.60;;;2.80;;
9970;SDS011;5026;51.494;11.974;2022-07-29T07:57:44;6.97;;;2.95;;
9970;SDS011;5026;51.494;11.974;2022-07-29T08:00:12;4.82;;;2.65;;
9970;SDS011;5026;51.494;11.974;2022-07-29T08:02:41;8.60;;;3.28;;
9970;SDS011;5026;51.494;11.974;2022-07-29T08:05:10;8.18;;;3.63;;
9970;SDS011;5026;51.494;11.974;2022-07-29T08:07:40;12.05;;;3.65;;
9970;SDS011;5026;51.494;11.974;2022-07-29T08:10:08;7.85;;;3.92;;
9970;SDS011;5026;51.494;11.974;2022-07-29T08:12:36;8.02;;;3.20;;
9970;SDS011;5026;51.494;11.974;2022-07-29T08:15:03;11.52;;;3.50;;
9970;SDS011;5026;51.494;11.974;2022-07-29T08:17:32;9.38;;;3.30;;
9970;SDS011;5026;51.494;11.974;2022-07-29T08:19:59;8.15;;;3.15;;
9970;SDS011;5026;51.494;11.974;2022-07-29T08:22:26;4.22;;;2.75;;
9970;SDS011;5026;51.494;11.974;2022-07-29T08:24:54;8.52;;;3.00;;
9970;SDS011;5026;51.494;11.974;2022-07-29T08:27:21;7.65;;;3.10;;
9970;SDS011;5026;51.494;11.974;2022-07-29T08:29:52;8.98;;;3.33;;
9970;SDS011;5026;51.494;11.974;2022-07-29T08:32:20;7.20;;;3.10;;
9970;SDS011;5026;51.494;11.974;2022-07-29T08:34:47;6.93;;;3.50;;
9970;SDS011;5026;51.494;11.974;2022-07-29T08:37:14;5.25;;;3.17;;
9970;SDS011;5026;51.494;11.974;2022-07-29T08:39:41;4.65;;;2.97;;
9970;SDS011;5026;51.494;11.974;2022-07-29T08:42:08;12.48;;;3.72;;
9970;SDS011;5026;51.494;11.974;2022-07-29T08:44:37;6.72;;;3.40;;
9970;SDS011;5026;51.494;11.974;2022-07-29T08:47:05;8.70;;;3.33;;
9970;SDS011;5026;51.494;11.974;2022-07-29T08:49:33;6.55;;;2.80;;
9970;SDS011;5026;51.494;11.974;2022-07-29T08:52:01;5.13;;;3.08;;
9970;SDS011;5026;51.494;11.974;2022-07-29T08:54:29;5.80;;;3.10;;
9970;SDS011;5026;51.494;11.974;2022-07-29T08:56:56;9.90;;;3.50;;
9970;SDS011;5026;51.494;11.974;2022-07-29T08:59:25;7.10;;;3.30;;
9970;SDS011;5026;51.494;11.974;2022-07-29T09:01:53;9.40;;;3.17;;
9970;SDS011;5026;51.494;11.974;2022-07-29T09:04:25;5.90;;;2.97;;
9970;SDS011;5026;51.494;11.974;2022-07-29T09:06:57;4.03;;;2.60;;
9970;SDS011;5026;51.494;11.974;2022-07-29T09:09:30;7.65;;;3.28;;
9970;SDS011;5026;51.494;11.974;2022-07-29T09:11:58;6.78;;;3.28;;
9970;SDS011;5026;51.494;11.974;2022-07-29T09:14:25;4.65;;;2.92;;
9970;SDS011;5026;51.494;11.974;2022-07-29T09:16:53;12.02;;;3.17;;
9970;SDS011;5026;51.494;11.974;2022-07-29T09:19:22;4.80;;;3.03;;
9970;SDS011;5026;51.494;11.974;2022-07-29T09:21:53;4.32;;;2.78;;
9970;SDS011;5026;51.494;11.974;2022-07-29T09:24:24;5.68;;;2.92;;
9970;SDS011;5026;51.494;11.974;2022-07-29T09:26:53;3.65;;;2.35;;
9970;SDS011;5026;51.494;11.974;2022-07-29T09:29:21;4.60;;;2.65;;
9970;SDS011;5026;51.494;11.974;2022-07-29T09:31:50;4.80;;;2.28;;
9970;SDS011;5026;51.494;11.974;2022-07-29T09:34:21;5.13;;;2.60;;
9970;SDS011;5026;51.494;11.974;2022-07-29T09:36:50;3.75;;;2.55;;
9970;SDS011;5026;51.494;11.974;2022-07-29T09:39:28;4.70;;;2.20;;
9970;SDS011;5026;51.494;11.974;2022-07-29T09:41:56;6.93;;;2.17;;
9970;SDS011;5026;51.494;11.974;2022-07-29T09:44:25;4.00;;;2.45;;
9970;SDS011;5026;51.494;11.974;2022-07-29T09:46:59;9.02;;;2.70;;
9970;SDS011;5026;51.494;11.974;2022-07-29T09:49:31;3.78;;;2.28;;
9970;SDS011;5026;51.494;11.974;2022-07-29T09:52:08;4.05;;;2.35;;
9970;SDS011;5026;51.494;11.974;2022-07-29T09:54:37;6.70;;;2.55;;
9970;SDS011;5026;51.494;11.974;2022-07-29T09:57:05;10.88;;;6.38;;
9970;SDS011;5026;51.494;11.974;2022-07-29T09:59:34;14.00;;;7.80;;
9970;SDS011;5026;51.494;11.974;2022-07-29T10:02:01;11.20;;;6.18;;
9970;SDS011;5026;51.494;11.974;2022-07-29T10:04:38;13.07;;;8.80;;
9970;SDS011;5026;51.494;11.974;2022-07-29T10:07:06;13.60;;;8.02;;
9970;SDS011;5026;51.494;11.974;2022-07-29T10:09:33;15.63;;;8.80;;
9970;SDS011;5026;51.494;11.974;2022-07-29T10:12:16;14.85;;;9.27;;
9970;SDS011;5026;51.494;11.974;2022-07-29T10:14:43;13.23;;;7.55;;
9970;SDS011;5026;51.494;11.974;2022-07-29T10:17:10;9.75;;;5.35;;
9970;SDS011;5026;51.494;11.974;2022-07-29T10:19:38;18.13;;;9.80;;
9970;SDS011;5026;51.494;11.974;2022-07-29T10:22:07;11.05;;;6.50;;
9970;SDS011;5026;51.494;11.974;2022-07-29T10:24:36;16.77;;;9.30;;
9970;SDS011;5026;51.494;11.974;2022-07-29T10:27:05;17.30;;;7.20;;
9970;SDS011;5026;51.494;11.974;2022-07-29T10:29:34;13.07;;;5.43;;
9970;SDS011;5026;51.494;11.974;2022-07-29T10:32:07;10.77;;;5.45;;
9970;SDS011;5026;51.494;11.974;2022-07-29T10:34:57;10.25;;;4.93;;
9970;SDS011;5026;51.494;11.974;2022-07-29T10:37:37;7.22;;;4.10;;
9970;SDS011;5026;51.494;11.974;2022-07-29T10:40:20;8.77;;;3.75;;
9970;SDS011;5026;51.494;11.974;2022-07-29T10:43:17;5.03;;;4.13;;
9970;SDS011;5026;51.494;11.974;2022-07-29T10:45:47;7.63;;;3.85;;
9970;SDS011;5026;51.494;11.974;2022-07-29T10:48:15;5.47;;;3.38;;
9970;SDS011;5026;51.494;11.974;2022-07-29T10:50:52;6.05;;;3.20;;
9970;SDS011;5026;51.494;11.974;2022-07-29T10:53:23;6.80;;;3.13;;
9970;SDS011;5026;51.494;11.974;2022-07-29T10:55:51;7.53;;;2.88;;
9970;SDS011;5026;51.494;11.974;2022-07-29T10:58:20;6.18;;;2.65;;
9970;SDS011;5026;51.494;11.974;2022-07-29T11:00:51;4.20;;;3.00;;
9970;SDS011;5026;51.494;11.974;2022-07-29T11:06:11;3.03;;;2.30;;
9970;SDS011;5026;51.494;11.974;2022-07-29T11:08:39;3.72;;;2.33;;
9970;SDS011;5026;51.494;11.974;2022-07-29T11:13:59;4.97;;;2.38;;
9970;SDS011;5026;51.494;11.974;2022-07-29T11:16:26;3.55;;;2.20;;
9970;SDS011;5026;51.494;11.974;2022-07-29T11:19:27;3.55;;;2.38;;
9970;SDS011;5026;51.494;11.974;2022-07-29T11:21:54;5.40;;;2.80;;
9970;SDS011;5026;51.494;11.974;2022-07-29T11:24:23;4.65;;;2.45;;
9970;SDS011;5026;51.494;11.974;2022-07-29T11:27:12;4.50;;;2.58;;
9970;SDS011;5026;51.494;11.974;2022-07-29T11:29:49;6.93;;;2.60;;
9970;SDS011;5026;51.494;11.974;2022-07-29T11:32:20;4.50;;;2.58;;
9970;SDS011;5026;51.494;11.974;2022-07-29T11:34:48;4.53;;;2.40;;
9970;SDS011;5026;51.494;11.974;2022-07-29T11:37:35;9.32;;;2.38;;
9970;SDS011;5026;51.494;11.974;2022-07-29T11:40:12;5.28;;;2.47;;
9970;SDS011;5026;51.494;11.974;2022-07-29T11:42:47;5.18;;;2.22;;
9970;SDS011;5026;51.494;11.974;2022-07-29T11:45:20;4.43;;;2.40;;
9970;SDS011;5026;51.494;11.974;2022-07-29T11:47:53;6.93;;;2.45;;
9970;SDS011;5026;51.494;11.974;2022-07-29T11:50:28;5.60;;;2.25;;
9970;SDS011;5026;51.494;11.974;2022-07-29T11:53:00;3.58;;;2.20;;
9970;SDS011;5026;51.494;11.974;2022-07-29T11:55:28;6.40;;;2.70;;
9970;SDS011;5026;51.494;11.974;2022-07-29T11:57:57;8.88;;;2.30;;
9970;SDS011;5026;51.494;11.974;2022-07-29T12:00:28;3.85;;;2.35;;
9970;SDS011;5026;51.494;11.974;2022-07-29T12:02:58;4.10;;;1.92;;
9970;SDS011;5026;51.494;11.974;2022-07-29T12:05:33;2.97;;;2.30;;
9970;SDS011;5026;51.494;11.974;2022-07-29T12:08:10;6.30;;;2.40;;
9970;SDS011;5026;51.494;11.974;2022-07-29T12:10:44;3.55;;;2.25;;
9970;SDS011;5026;51.494;11.974;2022-07-29T12:13:12;8.10;;;2.30;;
9970;SDS011;5026;51.494;11.974;2022-07-29T12:15:41;2.42;;;2.10;;
9970;SDS011;5026;51.494;11.974;2022-07-29T12:18:19;6.43;;;2.67;;
9970;SDS011;5026;51.494;11.974;2022-07-29T12:20:47;8.77;;;2.45;;
9970;SDS011;5026;51.494;11.974;2022-07-29T12:23:14;2.88;;;2.20;;
9970;SDS011;5026;51.494;11.974;2022-07-29T12:25:42;4.30;;;2.45;;
9970;SDS011;5026;51.494;11.974;2022-07-29T12:28:11;7.78;;;2.67;;
9970;SDS011;5026;51.494;11.974;2022-07-29T12:30:43;2.38;;;2.03;;
9970;SDS011;5026;51.494;11.974;2022-07-29T12:33:14;5.22;;;2.45;;
9970;SDS011;5026;51.494;11.974;2022-07-29T12:35:44;3.10;;;2.22;;
9970;SDS011;5026;51.494;11.974;2022-07-29T12:38:13;5.50;;;2.33;;
9970;SDS011;5026;51.494;11.974;2022-07-29T12:40:40;3.50;;;2.40;;
9970;SDS011;5026;51.494;11.974;2022-07-29T12:43:08;3.17;;;2.35;;
9970;SDS011;5026;51.494;11.974;2022-07-29T12:45:38;7.55;;;2.63;;
9970;SDS011;5026;51.494;11.974;2022-07-29T12:48:07;6.10;;;2.65;;
9970;SDS011;5026;51.494;11.974;2022-07-29T12:50:35;4.05;;;2.40;;
9970;SDS011;5026;51.494;11.974;2022-07-29T12:53:09;3.50;;;2.20;;
9970;SDS011;5026;51.494;11.974;2022-07-29T12:55:39;6.05;;;2.75;;
9970;SDS011;5026;51.494;11.974;2022-07-29T12:58:07;4.95;;;2.13;;
9970;SDS011;5026;51.494;11.974;2022-07-29T13:00:34;6.97;;;2.17;;
9970;SDS011;5026;51.494;11.974;2022-07-29T13:03:01;4.15;;;2.30;;
9970;SDS011;5026;51.494;11.974;2022-07-29T13:05:43;2.25;;;2.10;;
9970;SDS011;5026;51.494;11.974;2022-07-29T13:08:11;5.07;;;2.20;;
9970;SDS011;5026;51.494;11.974;2022-07-29T13:10:39;6.63;;;2.55;;
9970;SDS011;5026;51.494;11.974;2022-07-29T13:13:08;2.10;;;2.00;;
9970;SDS011;5026;51.494;11.974;2022-07-29T13:15:36;3.15;;;2.10;;
9970;SDS011;5026;51.494;11.974;2022-07-29T13:18:03;3.03;;;2.38;;
9970;SDS011;5026;51.494;11.974;2022-07-29T13:20:32;3.83;;;2.45;;
9970;SDS011;5026;51.494;11.974;2022-07-29T13:23:01;2.92;;;2.58;;
9970;SDS011;5026;51.494;11.974;2022-07-29T13:25:28;4.20;;;2.13;;
9970;SDS011;5026;51.494;11.974;2022-07-29T13:27:58;4.72;;;2.53;;
9970;SDS011;5026;51.494;11.974;2022-07-29T13:30:25;4.00;;;2.53;;
9970;SDS011;5026;51.494;11.974;2022-07-29T13:32:52;4.15;;;2.22;;
9970;SDS011;5026;51.494;11.974;2022-07-29T13:35:20;2.25;;;2.05;;
9970;SDS011;5026;51.494;11.974;2022-07-29T13:37:47;4.13;;;2.38;;
9970;SDS011;5026;51.494;11.974;2022-07-29T13:40:15;4.68;;;2.28;;
9970;SDS011;5026;51.494;11.974;2022-07-29T13:42:42;3.58;;;2.60;;
9970;SDS011;5026;51.494;11.974;2022-07-29T13:45:09;4.13;;;2.42;;
9970;SDS011;5026;51.494;11.974;2022-07-29T13:47:37;4.70;;;2.28;;
9970;SDS011;5026;51.494;11.974;2022-07-29T13:50:05;3.95;;;2.90;;
9970;SDS011;5026;51.494;11.974;2022-07-29T13:52:35;4.82;;;2.70;;
9970;SDS011;5026;51.494;11.974;2022-07-29T13:55:03;4.50;;;2.45;;
9970;SDS011;5026;51.494;11.974;2022-07-29T13:57:32;3.20;;;2.50;;
9970;SDS011;5026;51.494;11.974;2022-07-29T13:59:59;3.50;;;2.20;;
9970;SDS011;5026;51.494;11.974;2022-07-29T14:02:26;3.67;;;2.20;;
9970;SDS011;5026;51.494;11.974;2022-07-29T14:04:53;6.38;;;2.22;;
9970;SDS011;5026;51.494;11.974;2022-07-29T14:07:20;3.67;;;2.20;;
9970;SDS011;5026;51.494;11.974;2022-07-29T14:09:47;4.70;;;2.20;;
9970;SDS011;5026;51.494;11.974;2022-07-29T14:12:15;4.85;;;2.53;;
9970;SDS011;5026;51.494;11.974;2022-07-29T14:14:43;4.22;;;2.05;;
9970;SDS011;5026;51.494;11.974;2022-07-29T14:17:10;3.42;;;2.47;;
9970;SDS011;5026;51.494;11.974;2022-07-29T14:19:37;5.90;;;2.65;;
9970;SDS011;5026;51.494;11.974;2022-07-29T14:22:04;4.28;;;3.05;;
9970;SDS011;5026;51.494;11.974;2022-07-29T14:24:32;4.90;;;2.40;;
9970;SDS011;5026;51.494;11.974;2022-07-29T14:26:59;6.43;;;2.53;;
9970;SDS011;5026;51.494;11.974;2022-07-29T14:29:26;3.63;;;2.58;;
9970;SDS011;5026;51.494;11.974;2022-07-29T14:31:55;3.03;;;2.33;;
9970;SDS011;5026;51.494;11.974;2022-07-29T14:34:22;4.47;;;2.58;;
9970;SDS011;5026;51.494;11.974;2022-07-29T14:36:49;3.60;;;2.30;;
9970;SDS011;5026;51.494;11.974;2022-07-29T14:39:16;4.38;;;2.60;;
9970;SDS011;5026;51.494;11.974;2022-07-29T14:41:43;6.57;;;2.75;;
9970;SDS011;5026;51.494;11.974;2022-07-29T14:44:10;2.60;;;2.40;;
9970;SDS011;5026;51.494;11.974;2022-07-29T14:46:37;3.75;;;2.40;;
9970;SDS011;5026;51.494;11.974;2022-07-29T14:49:05;3.28;;;2.50;;
9970;SDS011;5026;51.494;11.974;2022-07-29T14:51:32;3.55;;;2.53;;
9970;SDS011;5026;51.494;11.974;2022-07-29T14:53:59;3.97;;;2.53;;
9970;SDS011;5026;51.494;11.974;2022-07-29T14:56:26;2.97;;;2.45;;
9970;SDS011;5026;51.494;11.974;2022-07-29T14:58:54;4.78;;;2.50;;
9970;SDS011;5026;51.494;11.974;2022-07-29T15:01:22;4.03;;;2.50;;
9970;SDS011;5026;51.494;11.974;2022-07-29T15:03:49;3.28;;;2.63;;
9970;SDS011;5026;51.494;11.974;2022-07-29T15:06:18;6.10;;;2.33;;
9970;SDS011;5026;51.494;11.974;2022-07-29T15:08:45;8.13;;;2.50;;
9970;SDS011;5026;51.494;11.974;2022-07-29T15:11:12;2.67;;;2.05;;
9970;SDS011;5026;51.494;11.974;2022-07-29T15:13:39;3.85;;;2.33;;
9970;SDS011;5026;51.494;11.974;2022-07-29T15:16:06;4.38;;;2.40;;
9970;SDS011;5026;51.494;11.974;2022-07-29T15:18:33;4.63;;;2.63;;